Time,TemperatureF,DewpointF,PressureIn,WindDirection,WindDirectionDegrees,WindSpeedMPH,WindSpeedGustMPH,Humidity,HourlyPrecipIn,Conditions,Clouds,dailyrainin,SoftwareType,DateUTC
2013-03-16 00:03:00,48.0,-99.9,29.80,SE,129,2.0,2.0,-999,-99.99,,,-99.99,,2013-03-16 04:03:00,
2013-03-16 00:13:00,48.0,-99.9,29.80,South,174,2.0,2.0,-999,-99.99,,,-99.99,,2013-03-16 04:13:00,
2013-03-16 00:23:00,46.0,-99.9,29.80,North,-999,-999.0,-999.0,-999,-99.99,,,-99.99,,2013-03-16 04:23:00,
2013-03-16 00:33:00,47.0,-99.9,29.80,ESE,113,2.0,2.0,-999,-99.99,,,-99.99,,2013-03-16 04:33:00,
2013-03-16 00:43:00,-999.0,-99.9,29.79,ESE,104,1.0,1.0,-999,-99.99,,,-99.99,,2013-03-16 04:43:00,
2013-03-16 00:53:00,46.0,-99.9,29.80,ESE,120,0.0,1.0,-999,-99.99,,,-99.99,,2013-03-16 04:53:00,
2013-03-16 01:03:00,46.0,-99.9,29.80,South,179,2.0,3.0,-999,-99.99,,,-99.99,,2013-03-16 05:03:00,
2013-03-16 01:12:00,44.0,-99.9,29.80,North,-999,-999.0,-999.0,-999,-99.99,,,-99.99,,2013-03-16 05:12:00,
2013-03-16 01:22:00,-999.0,-99.9,29.80,SSE,155,3.0,4.0,-999,-99.99,,,-99.99,,2013-03-16 05:22:00,
2013-03-16 01:32:00,46.0,-99.9,29.80,SSE,161,2.0,4.0,-999,-99.99,,,-99.99,,2013-03-16 05:32:00,
2013-03-16 01:42:00,46.0,-99.9,29.79,South,179,1.0,2.0,-999,-99.99,,,-99.99,,2013-03-16 05:42:00,
2013-03-16 01:53:00,46.0,-99.9,29.79,North,-999,-999.0,-999.0,-999,-99.99,,,-99.99,,2013-03-16 05:53:00,
2013-03-16 02:02:00,46.0,-99.9,29.79,SSE,151,2.0,4.0,-999,-99.99,,,-99.99,,2013-03-16 06:02:00,
2013-03-16 02:12:00,46.0,-99.9,29.79,North,-999,-999.0,-999.0,-999,-99.99,,,-99.99,,2013-03-16 06:12:00,
2013-03-16 02:22:00,45.0,-99.9,29.79,North,-999,-999.0,-999.0,-999,-99.99,,,-99.99,,2013-03-16 06:22:00,
2013-03-16 02:32:00,45.0,-99.9,29.79,SSW,211,2.0,2.0,-999,-99.99,,,-99.99,,2013-03-16 06:32:00,
2013-03-16 02:42:00,45.0,-99.9,29.79,SSE,158,3.0,4.0,-999,-99.99,,,-99.99,,2013-03-16 06:42:00,
2013-03-16 02:52:00,-999.0,-99.9,29.79,South,170,3.0,3.0,-999,-99.99,,,-99.99,,2013-03-16 06:52:00,
2013-03-16 03:02:00,45.0,-99.9,29.80,SSE,157,0.0,2.0,-999,-99.99,,,-99.99,,2013-03-16 07:02:00,
2013-03-16 03:12:00,-999.0,-99.9,29.79,SSE,168,3.0,4.0,-999,-99.99,,,-99.99,,2013-03-16 07:12:00,
2013-03-16 03:22:00,45.0,-99.9,29.79,North,-999,-999.0,-999.0,-999,-99.99,,,-99.99,,2013-03-16 07:22:00,
2013-03-16 03:32:00,45.0,-99.9,29.79,SSE,165,3.0,4.0,-999,-99.99,,,-99.99,,2013-03-16 07:32:00,
2013-03-16 03:42:00,45.0,-99.9,29.79,North,-999,-999.0,-999.0,-999,-99.99,,,-99.99,,2013-03-16 07:42:00,
2013-03-16 03:53:00,45.0,-99.9,29.79,North,-999,-999.0,-999.0,-999,-99.99,,,-99.99,,2013-03-16 07:53:00,
2013-03-16 04:03:00,45.0,-99.9,29.79,SSE,153,1.0,2.0,-999,-99.99,,,-99.99,,2013-03-16 08:03:00,
2013-03-16 04:12:00,45.0,-99.9,29.78,SSW,199,-999.0,2.0,-999,-99.99,,,-99.99,,2013-03-16 08:12:00,
2013-03-16 04:23:00,45.0,-99.9,29.78,North,-999,-999.0,-999.0,-999,-99.99,,,-99.99,,2013-03-16 08:23:00,
2013-03-16 04:33:00,45.0,-99.9,29.78,NW,323,1.0,2.0,-999,-99.99,,,-99.99,,2013-03-16 08:33:00,
2013-03-16 04:42:00,-999.0,-99.9,29.78,NW,325,1.0,1.0,-999,-99.99,,,-99.99,,2013-03-16 08:42:00,
2013-03-16 04:52:00,45.0,-99.9,29.78,North,-999,-999.0,-999.0,-999,-99.99,,,-99.99,,2013-03-16 08:52:00,
2013-03-16 05:02:00,45.0,-99.9,29.78,NNW,333,-999.0,2.0,-999,-99.99,,,-99.99,,2013-03-16 09:02:00,
2013-03-16 05:12:00,45.0,-99.9,29.77,NNW,333,1.0,1.0,-999,-99.99,,,-99.99,,2013-03-16 09:12:00,
2013-03-16 05:22:00,45.0,-99.9,29.78,North,-999,-999.0,-999.0,-999,-99.99,,,-99.99,,2013-03-16 09:22:00,
2013-03-16 05:33:00,45.0,-99.9,29.78,SW,233,2.0,2.0,-999,-99.99,,,-99.99,,2013-03-16 09:33:00,
2013-03-16 05:43:00,45.0,-99.9,29.79,North,-999,-999.0,-999.0,-999,-99.99,,,-99.99,,2013-03-16 09:43:00,
2013-03-16 05:53:00,-999.0,-99.9,29.79,NNE,19,2.0,2.0,-999,-99.99,,,-99.99,,2013-03-16 09:53:00,
2013-03-16 06:03:00,46.0,-99.9,29.78,ESE,104,3.0,5.0,-999,-99.99,,,-99.99,,2013-03-16 10:03:00,
2013-03-16 06:12:00,48.0,-99.9,29.78,North,-999,-999.0,-999.0,-999,-99.99,,,-99.99,,2013-03-16 10:12:00,
2013-03-16 06:23:00,-999.0,-99.9,29.78,East,84,2.0,7.0,-999,-99.99,,,-99.99,,2013-03-16 10:23:00,
2013-03-16 06:32:00,48.0,-99.9,29.79,East,87,3.0,6.0,-999,-99.99,,,-99.99,,2013-03-16 10:32:00,
2013-03-16 06:42:00,48.0,-99.9,29.80,ENE,63,4.0,6.0,-999,-99.99,,,-99.99,,2013-03-16 10:42:00,
2013-03-16 06:53:00,-999.0,-99.9,29.80,East,99,3.0,5.0,-999,-99.99,,,-99.99,,2013-03-16 10:53:00,
2013-03-16 07:03:00,48.0,-99.9,29.80,East,100,3.0,6.0,-999,-99.99,,,-99.99,,2013-03-16 11:03:00,
2013-03-16 07:12:00,48.0,-99.9,29.80,North,-999,-999.0,-999.0,-999,-99.99,,,-99.99,,2013-03-16 11:12:00,
2013-03-16 07:22:00,-999.0,-99.9,29.81,ESE,107,4.0,6.0,-999,-99.99,,,-99.99,,2013-03-16 11:22:00,
2013-03-16 07:33:00,48.0,-99.9,29.81,East,89,3.0,6.0,-999,-99.99,,,-99.99,,2013-03-16 11:33:00,
2013-03-16 07:43:00,48.0,-99.9,29.80,ENE,64,3.0,7.0,-999,-99.99,,,-99.99,,2013-03-16 11:43:00,
2013-03-16 07:53:00,-999.0,-99.9,29.80,East,83,2.0,6.0,-999,-99.99,,,-99.99,,2013-03-16 11:53:00,
2013-03-16 08:02:00,48.0,-99.9,29.80,ESE,107,3.0,7.0,-999,-99.99,,,-99.99,,2013-03-16 12:02:00,
2013-03-16 08:12:00,48.0,-99.9,29.81,North,-999,-999.0,-999.0,-999,-99.99,,,-99.99,,2013-03-16 12:12:00,
2013-03-16 08:23:00,-999.0,-99.9,29.81,SE,142,3.0,7.0,-999,-99.99,,,-99.99,,2013-03-16 12:23:00,
2013-03-16 08:32:00,48.0,-99.9,29.81,East,94,3.0,6.0,-999,-99.99,,,-99.99,,2013-03-16 12:32:00,
2013-03-16 08:43:00,48.0,-99.9,29.81,North,-999,-999.0,-999.0,-999,-99.99,,,-99.99,,2013-03-16 12:43:00,
2013-03-16 08:53:00,48.0,-99.9,29.81,North,-999,-999.0,-999.0,-999,-99.99,,,-99.99,,2013-03-16 12:53:00,
2013-03-16 09:02:00,48.0,-99.9,29.81,ESE,108,4.0,6.0,-999,-99.99,,,-99.99,,2013-03-16 13:02:00,
2013-03-16 09:12:00,48.0,-99.9,29.81,ENE,69,2.0,8.0,-999,-99.99,,,-99.99,,2013-03-16 13:12:00,
2013-03-16 09:23:00,-999.0,-99.9,29.82,East,83,3.0,5.0,-999,-99.99,,,-99.99,,2013-03-16 13:23:00,
2013-03-16 09:32:00,48.0,-99.9,29.82,ESE,107,4.0,7.0,-999,-99.99,,,-99.99,,2013-03-16 13:32:00,
2013-03-16 09:43:00,-999.0,-99.9,29.82,ESE,105,6.0,8.0,-999,-99.99,,,-99.99,,2013-03-16 13:43:00,
2013-03-16 09:53:00,-999.0,-99.9,29.81,ESE,103,3.0,6.0,-999,-99.99,,,-99.99,,2013-03-16 13:53:00,
2013-03-16 10:03:00,48.0,-99.9,29.81,ESE,114,4.0,7.0,-999,-99.99,,,-99.99,,2013-03-16 14:03:00,
2013-03-16 10:12:00,48.0,-99.9,29.81,ESE,105,4.0,7.0,-999,-99.99,,,-99.99,,2013-03-16 14:12:00,
2013-03-16 10:22:00,-999.0,-99.9,29.80,ESE,104,6.0,8.0,-999,-99.99,,,-99.99,,2013-03-16 14:22:00,
2013-03-16 10:32:00,49.0,-99.9,29.79,ESE,105,4.0,6.0,-999,-99.99,,,-99.99,,2013-03-16 14:32:00,
2013-03-16 10:42:00,49.0,-99.9,29.78,North,-999,-999.0,-999.0,-999,-99.99,,,-99.99,,2013-03-16 14:42:00,
2013-03-16 10:53:00,-999.0,-99.9,29.77,ESE,104,5.0,12.0,-999,-99.99,,,-99.99,,2013-03-16 14:53:00,
2013-03-16 11:03:00,50.0,-99.9,29.77,SSE,147,7.0,11.0,-999,-99.99,,,-99.99,,2013-03-16 15:03:00,
2013-03-16 11:13:00,-999.0,-99.9,29.76,ESE,103,5.0,10.0,-999,-99.99,,,-99.99,,2013-03-16 15:13:00,
2013-03-16 11:23:00,51.0,-99.9,29.76,North,-999,-999.0,-999.0,-999,-99.99,,,-99.99,,2013-03-16 15:23:00,
2013-03-16 11:33:00,51.0,-99.9,29.76,SE,135,6.0,9.0,-999,-99.99,,,-99.99,,2013-03-16 15:33:00,
2013-03-16 11:44:00,51.0,-99.9,29.75,East,100,5.0,10.0,-999,-99.99,,,-99.99,,2013-03-16 15:44:00,
2013-03-16 11:53:00,52.0,-99.9,29.75,North,-999,-999.0,-999.0,-999,-99.99,,,-99.99,,2013-03-16 15:53:00,
2013-03-16 12:03:00,51.0,-99.9,29.74,SE,145,6.0,10.0,-999,-99.99,,,-99.99,,2013-03-16 16:03:00,
2013-03-16 12:13:00,-999.0,-99.9,29.73,ESE,110,4.0,10.0,-999,-99.99,,,-99.99,,2013-03-16 16:13:00,
2013-03-16 12:23:00,-999.0,-99.9,29.73,SE,138,7.0,10.0,-999,-99.99,,,-99.99,,2013-03-16 16:23:00,
2013-03-16 12:33:00,53.0,-99.9,29.71,ESE,122,6.0,9.0,-999,-99.99,,,-99.99,,2013-03-16 16:33:00,
2013-03-16 12:43:00,54.0,-99.9,29.71,SE,144,5.0,10.0,-999,-99.99,,,-99.99,,2013-03-16 16:43:00,
2013-03-16 12:53:00,53.0,-99.9,29.70,North,-999,-999.0,-999.0,-999,-99.99,,,-99.99,,2013-03-16 16:53:00,
2013-03-16 13:03:00,55.0,-99.9,29.71,ESE,119,2.0,6.0,-999,-99.99,,,-99.99,,2013-03-16 17:03:00,
2013-03-16 13:13:00,55.0,-99.9,29.71,North,-999,-999.0,-999.0,-999,-99.99,,,-99.99,,2013-03-16 17:13:00,
2013-03-16 13:23:00,-999.0,-99.9,29.70,SW,226,3.0,3.0,-999,-99.99,,,-99.99,,2013-03-16 17:23:00,
2013-03-16 13:33:00,56.0,-99.9,29.70,SW,235,0.0,2.0,-999,-99.99,,,-99.99,,2013-03-16 17:33:00,
2013-03-16 13:43:00,56.0,-99.9,29.70,North,-999,-999.0,-999.0,-999,-99.99,,,-99.99,,2013-03-16 17:43:00,
2013-03-16 13:53:00,56.0,-99.9,29.69,North,-999,-999.0,-999.0,-999,-99.99,,,-99.99,,2013-03-16 17:53:00,
2013-03-16 14:03:00,56.0,-99.9,29.68,SSE,156,3.0,4.0,-999,-99.99,,,-99.99,,2013-03-16 18:03:00,
2013-03-16 14:13:00,55.0,-99.9,29.67,South,179,4.0,6.0,-999,-99.99,,,-99.99,,2013-03-16 18:13:00,
2013-03-16 14:23:00,-999.0,-99.9,29.65,SE,144,3.0,6.0,-999,-99.99,,,-99.99,,2013-03-16 18:23:00,
2013-03-16 14:33:00,57.0,-99.9,29.63,SSE,153,9.0,11.0,-999,-99.99,,,-99.99,,2013-03-16 18:33:00,
2013-03-16 14:43:00,58.0,-99.9,29.64,North,-999,-999.0,-999.0,-999,-99.99,,,-99.99,,2013-03-16 18:43:00,
2013-03-16 14:53:00,58.0,-99.9,29.65,North,-999,-999.0,-999.0,-999,-99.99,,,-99.99,,2013-03-16 18:53:00,
2013-03-16 15:02:00,58.0,-99.9,29.64,SSW,193,7.0,11.0,-999,-99.99,,,-99.99,,2013-03-16 19:02:00,
2013-03-16 15:12:00,57.0,-99.9,29.64,South,183,7.0,9.0,-999,-99.99,,,-99.99,,2013-03-16 19:12:00,
2013-03-16 15:23:00,57.0,-99.9,29.65,North,-999,-999.0,-999.0,-999,-99.99,,,-99.99,,2013-03-16 19:23:00,
2013-03-16 15:33:00,55.0,-99.9,29.64,SSE,168,9.0,11.0,-999,-99.99,,,-99.99,,2013-03-16 19:33:00,
2013-03-16 15:42:00,-999.0,-99.9,29.63,SSE,162,9.0,9.0,-999,-99.99,,,-99.99,,2013-03-16 19:42:00,
2013-03-16 15:53:00,55.0,-99.9,29.64,North,-999,-999.0,-999.0,-999,-99.99,,,-99.99,,2013-03-16 19:53:00,
2013-03-16 16:03:00,55.0,-99.9,29.64,SSE,165,4.0,6.0,-999,-99.99,,,-99.99,,2013-03-16 20:03:00,
2013-03-16 16:13:00,-999.0,-99.9,29.64,SSE,157,5.0,5.0,-999,-99.99,,,-99.99,,2013-03-16 20:13:00,
2013-03-16 16:22:00,55.0,-99.9,29.63,North,-999,-999.0,-999.0,-999,-99.99,,,-99.99,,2013-03-16 20:22:00,
2013-03-16 16:33:00,57.0,-99.9,29.63,South,171,6.0,7.0,-999,-99.99,,,-99.99,,2013-03-16 20:33:00,
2013-03-16 16:43:00,56.0,-99.9,29.63,South,176,6.0,8.0,-999,-99.99,,,-99.99,,2013-03-16 20:43:00,
2013-03-16 16:53:00,55.0,-99.9,29.63,North,-999,-999.0,-999.0,-999,-99.99,,,-99.99,,2013-03-16 20:53:00,
2013-03-16 17:02:00,57.0,-99.9,29.64,NNE,24,0.0,2.0,-999,-99.99,,,-99.99,,2013-03-16 21:02:00,
2013-03-16 17:12:00,57.0,-99.9,29.64,North,-999,-999.0,-999.0,-999,-99.99,,,-99.99,,2013-03-16 21:12:00,
2013-03-16 17:23:00,-999.0,-99.9,29.64,ENE,68,5.0,7.0,-999,-99.99,,,-99.99,,2013-03-16 21:23:00,
2013-03-16 17:33:00,55.0,-99.9,29.64,ENE,64,5.0,10.0,-999,-99.99,,,-99.99,,2013-03-16 21:33:00,
2013-03-16 17:43:00,55.0,-99.9,29.64,ENE,69,4.0,7.0,-999,-99.99,,,-99.99,,2013-03-16 21:43:00,
2013-03-16 17:53:00,55.0,-99.9,29.64,North,-999,-999.0,-999.0,-999,-99.99,,,-99.99,,2013-03-16 21:53:00,
2013-03-16 18:03:00,55.0,-99.9,29.65,NNE,15,5.0,11.0,-999,-99.99,,,-99.99,,2013-03-16 22:03:00,
2013-03-16 18:13:00,55.0,-99.9,29.65,North,-999,-999.0,-999.0,-999,-99.99,,,-99.99,,2013-03-16 22:13:00,
2013-03-16 18:23:00,-999.0,-99.9,29.66,NE,50,4.0,14.0,-999,-99.99,,,-99.99,,2013-03-16 22:23:00,
2013-03-16 18:33:00,52.0,-99.9,29.67,NNE,30,6.0,13.0,-999,-99.99,,,-99.99,,2013-03-16 22:33:00,
2013-03-16 18:43:00,51.0,-99.9,29.69,NNE,24,8.0,16.0,-999,-99.99,,,-99.99,,2013-03-16 22:43:00,
2013-03-16 18:53:00,-999.0,-99.9,29.69,NNE,18,10.0,14.0,-999,-99.99,,,-99.99,,2013-03-16 22:53:00,
2013-03-16 19:03:00,50.0,-99.9,29.70,NNE,29,12.0,19.0,-999,-99.99,,,-99.99,,2013-03-16 23:03:00,
2013-03-16 19:13:00,49.0,-99.9,29.70,North,-999,-999.0,-999.0,-999,-99.99,,,-99.99,,2013-03-16 23:13:00,
2013-03-16 19:23:00,48.0,-99.9,29.72,North,-999,-999.0,-999.0,-999,-99.99,,,-99.99,,2013-03-16 23:23:00,
2013-03-16 19:33:00,48.0,-99.9,29.72,NNE,15,5.0,14.0,-999,-99.99,,,-99.99,,2013-03-16 23:33:00,
2013-03-16 19:43:00,-999.0,-99.9,29.73,North,6,8.0,12.0,-999,-99.99,,,-99.99,,2013-03-16 23:43:00,
2013-03-16 19:53:00,47.0,-99.9,29.74,North,-999,-999.0,-999.0,-999,-99.99,,,-99.99,,2013-03-16 23:53:00,
2013-03-16 20:02:00,47.0,-99.9,29.75,NNE,18,6.0,15.0,-999,-99.99,,,-99.99,,2013-03-17 00:02:00,
2013-03-16 20:13:00,47.0,-99.9,29.75,North,-999,-999.0,-999.0,-999,-99.99,,,-99.99,,2013-03-17 00:13:00,
2013-03-16 20:23:00,-999.0,-99.9,29.77,NNE,15,9.0,14.0,-999,-99.99,,,-99.99,,2013-03-17 00:23:00,
2013-03-16 20:33:00,46.0,-99.9,29.78,NE,43,6.0,13.0,-999,-99.99,,,-99.99,,2013-03-17 00:33:00,
2013-03-16 20:43:00,-999.0,-99.9,29.79,NE,37,7.0,9.0,-999,-99.99,,,-99.99,,2013-03-17 00:43:00,
2013-03-16 20:53:00,46.0,-99.9,29.80,North,-999,-999.0,-999.0,-999,-99.99,,,-99.99,,2013-03-17 00:53:00,
2013-03-16 21:03:00,46.0,-99.9,29.80,NE,53,3.0,10.0,-999,-99.99,,,-99.99,,2013-03-17 01:03:00,
2013-03-16 21:12:00,45.0,-99.9,29.82,NNE,27,7.0,11.0,-999,-99.99,,,-99.99,,2013-03-17 01:12:00,
2013-03-16 21:23:00,-999.0,-99.9,29.82,NNE,14,7.0,9.0,-999,-99.99,,,-99.99,,2013-03-17 01:23:00,
2013-03-16 21:33:00,44.0,-99.9,29.83,NE,39,6.0,13.0,-999,-99.99,,,-99.99,,2013-03-17 01:33:00,
2013-03-16 21:43:00,-999.0,-99.9,29.84,NE,49,7.0,10.0,-999,-99.99,,,-99.99,,2013-03-17 01:43:00,
2013-03-16 21:53:00,44.0,-99.9,29.86,North,-999,-999.0,-999.0,-999,-99.99,,,-99.99,,2013-03-17 01:53:00,
2013-03-16 22:03:00,44.0,-99.9,29.86,NNE,22,7.0,11.0,-999,-99.99,,,-99.99,,2013-03-17 02:03:00,
2013-03-16 22:13:00,-999.0,-99.9,29.86,NNE,18,6.0,12.0,-999,-99.99,,,-99.99,,2013-03-17 02:13:00,
2013-03-16 22:23:00,43.0,-99.9,29.87,North,-999,-999.0,-999.0,-999,-99.99,,,-99.99,,2013-03-17 02:23:00,
2013-03-16 22:33:00,44.0,-99.9,29.88,NE,41,3.0,6.0,-999,-99.99,,,-99.99,,2013-03-17 02:33:00,
2013-03-16 22:43:00,44.0,-99.9,29.89,NE,36,6.0,11.0,-999,-99.99,,,-99.99,,2013-03-17 02:43:00,
2013-03-16 22:53:00,-999.0,-99.9,29.89,North,3,7.0,10.0,-999,-99.99,,,-99.99,,2013-03-17 02:53:00,
2013-03-16 23:03:00,44.0,-99.9,29.90,NE,39,5.0,9.0,-999,-99.99,,,-99.99,,2013-03-17 03:03:00,
2013-03-16 23:12:00,43.0,-99.9,29.90,North,-999,-999.0,-999.0,-999,-99.99,,,-99.99,,2013-03-17 03:12:00,
2013-03-16 23:23:00,43.0,-99.9,29.90,North,-999,-999.0,-999.0,-999,-99.99,,,-99.99,,2013-03-17 03:23:00,
2013-03-16 23:34:00,43.0,-99.9,29.91,NNE,16,5.0,9.0,-999,-99.99,,,-99.99,,2013-03-17 03:34:00,
2013-03-16 23:43:00,43.0,-99.9,29.91,NNE,27,5.0,9.0,-999,-99.99,,,-99.99,,2013-03-17 03:43:00,
2013-03-16 23:53:00,-999.0,-99.9,29.91,NNE,27,6.0,11.0,-999,-99.99,,,-99.99,,2013-03-17 03:53:00,